Time;durP1;ratioP1;P1;durP2;ratioP2;P2;SDS_P1;SDS_P2;PMS_P1;PMS_P2;Temp;Humidity;BMP_temperature;BMP_pressure;BME280_temperature;BME280_humidity;BME280_pressure;Samples;Min_cycle;Max_cycle;Signal;HPM_P1;HPM_P2
2021/05/08 00:02:01;;;;;;;2.40;2.30;;;5.50;99.90;;;;;;5025552;28;20277;-78
2021/05/08 00:04:27;;;;;;;2.63;2.53;;;5.50;99.90;;;;;;5025056;28;20744;-78
2021/05/08 00:06:53;;;;;;;2.63;2.47;;;5.50;99.90;;;;;;5025265;28;20256;-78
2021/05/08 00:09:19;;;;;;;2.77;2.57;;;5.50;99.90;;;;;;5025531;28;20246;-78
2021/05/08 00:11:46;;;;;;;2.97;2.77;;;5.50;99.90;;;;;;5025158;28;20242;-78
2021/05/08 00:14:12;;;;;;;2.27;2.17;;;5.50;99.90;;;;;;5025009;28;20213;-79
2021/05/08 00:16:39;;;;;;;2.30;2.10;;;5.50;99.90;;;;;;5025485;28;20680;-78
2021/05/08 00:19:05;;;;;;;3.00;2.37;;;5.50;99.90;;;;;;5025451;28;20215;-78
2021/05/08 00:21:31;;;;;;;2.60;2.50;;;5.50;99.90;;;;;;5024891;28;20698;-78
2021/05/08 00:23:57;;;;;;;2.40;2.30;;;5.50;99.90;;;;;;5025234;28;20209;-78
2021/05/08 00:26:23;;;;;;;2.70;2.50;;;5.40;99.90;;;;;;5025217;28;20204;-78
2021/05/08 00:28:52;;;;;;;2.60;2.40;;;5.40;99.90;;;;;;5025319;28;20281;-78
2021/05/08 00:31:18;;;;;;;2.70;2.50;;;5.30;99.90;;;;;;5025188;27;20234;-78
2021/05/08 00:33:45;;;;;;;2.60;2.40;;;5.40;99.90;;;;;;5028549;28;20213;-78
2021/05/08 00:36:11;;;;;;;3.13;2.83;;;5.30;99.90;;;;;;5028476;28;20216;-78
2021/05/08 00:38:37;;;;;;;2.70;2.50;;;5.20;99.90;;;;;;5028270;28;20243;-77
2021/05/08 00:41:04;;;;;;;2.53;2.43;;;5.20;99.90;;;;;;5027947;28;20220;-77
2021/05/08 00:43:30;;;;;;;2.90;2.57;;;5.30;99.90;;;;;;5028220;28;20239;-76
2021/05/08 00:45:56;;;;;;;2.60;2.50;;;5.40;99.90;;;;;;5028209;28;20217;-77
2021/05/08 00:48:24;;;;;;;2.50;2.33;;;5.40;99.90;;;;;;5028306;28;20672;-76
2021/05/08 00:50:52;;;;;;;3.10;2.50;;;5.50;99.90;;;;;;5028479;28;20216;-76
2021/05/08 00:53:19;;;;;;;2.93;2.73;;;5.40;99.90;;;;;;5028596;28;20261;-78
2021/05/08 00:55:45;;;;;;;2.53;2.33;;;5.50;99.90;;;;;;5028026;28;20797;-78
2021/05/08 00:58:11;;;;;;;3.37;2.67;;;5.50;99.90;;;;;;5028203;28;20239;-78
2021/05/08 01:00:39;;;;;;;2.70;2.53;;;5.40;99.90;;;;;;5028534;28;20212;-78
2021/05/08 01:03:07;;;;;;;2.80;2.60;;;5.40;99.90;;;;;;5028170;28;20305;-77
2021/05/08 01:05:33;;;;;;;2.80;2.60;;;5.50;99.90;;;;;;5028429;28;20209;-77
2021/05/08 01:08:01;;;;;;;2.87;2.53;;;5.50;99.90;;;;;;5027893;28;20610;-77
2021/05/08 01:10:28;;;;;;;3.13;2.93;;;5.40;99.90;;;;;;5027878;28;20584;-77
2021/05/08 01:12:55;;;;;;;2.90;2.70;;;5.40;99.90;;;;;;5028036;28;20265;-78
2021/05/08 01:15:21;;;;;;;3.33;2.70;;;5.20;99.90;;;;;;5027960;28;20244;-78
2021/05/08 01:17:47;;;;;;;3.30;3.00;;;5.20;99.90;;;;;;5028097;28;20212;-78
2021/05/08 01:20:14;;;;;;;3.60;2.87;;;5.30;99.90;;;;;;5027883;28;20209;-79
2021/05/08 01:22:41;;;;;;;3.00;2.80;;;5.20;99.90;;;;;;5027915;28;20241;-77
2021/05/08 01:25:10;;;;;;;2.90;2.70;;;5.30;99.90;;;;;;5027777;28;20270;-79
2021/05/08 01:27:43;;;;;;;2.80;2.60;;;5.40;99.90;;;;;;5027681;28;20211;-78
2021/05/08 01:30:11;;;;;;;2.93;2.60;;;5.30;99.90;;;;;;5027745;28;20253;-78
2021/05/08 01:32:37;;;;;;;3.73;3.37;;;5.40;99.90;;;;;;5027757;28;20201;-78
2021/05/08 01:35:03;;;;;;;3.17;2.97;;;5.20;99.90;;;;;;5027691;28;20213;-78
2021/05/08 01:37:29;;;;;;;2.57;2.37;;;5.20;99.90;;;;;;5027599;28;20294;-77
2021/05/08 01:39:56;;;;;;;3.10;2.80;;;5.20;99.90;;;;;;5027426;28;20222;-78
2021/05/08 01:42:24;;;;;;;3.07;2.80;;;5.10;99.90;;;;;;5027667;28;20264;-78
2021/05/08 01:44:50;;;;;;;3.53;3.33;;;5.20;99.90;;;;;;5027061;28;20215;-78
2021/05/08 01:47:16;;;;;;;5.20;2.80;;;5.30;99.90;;;;;;5027389;28;20212;-78
2021/05/08 01:49:42;;;;;;;2.87;2.67;;;5.30;99.90;;;;;;5027448;28;21059;-77
2021/05/08 01:52:09;;;;;;;4.20;2.90;;;5.20;99.90;;;;;;5027518;28;20204;-77
2021/05/08 01:54:35;;;;;;;3.13;2.70;;;5.30;99.90;;;;;;5026656;28;20215;-77
2021/05/08 01:57:02;;;;;;;3.10;2.90;;;5.20;99.90;;;;;;5027304;28;20208;-77
2021/05/08 01:59:28;;;;;;;3.90;2.80;;;5.00;99.90;;;;;;5027298;28;20234;-77
2021/05/08 02:01:54;;;;;;;3.60;3.30;;;5.00;99.90;;;;;;5027022;28;20634;-77
2021/05/08 02:04:20;;;;;;;3.27;3.07;;;4.90;99.90;;;;;;5027213;28;20268;-77
2021/05/08 02:06:52;;;;;;;3.40;3.10;;;4.90;99.90;;;;;;5027448;28;20211;-77
2021/05/08 02:09:18;;;;;;;3.00;2.70;;;4.80;99.90;;;;;;5027151;28;20204;-77
2021/05/08 02:11:44;;;;;;;3.13;2.83;;;4.80;99.90;;;;;;5027143;28;20216;-78
2021/05/08 02:14:11;;;;;;;3.20;3.00;;;4.80;99.90;;;;;;5027117;28;20238;-77
2021/05/08 02:16:37;;;;;;;3.23;2.90;;;4.70;99.90;;;;;;5026736;28;20678;-77
2021/05/08 02:19:03;;;;;;;3.03;2.83;;;4.70;99.90;;;;;;5027002;28;20220;-77
2021/05/08 02:21:30;;;;;;;3.23;3.03;;;4.70;99.90;;;;;;5026833;28;20659;-77
2021/05/08 02:23:56;;;;;;;3.17;2.97;;;4.70;99.90;;;;;;5026725;28;20740;-76
2021/05/08 02:26:22;;;;;;;3.63;3.33;;;4.70;99.90;;;;;;5026835;28;20220;-77
2021/05/08 02:28:48;;;;;;;3.07;2.87;;;4.70;99.90;;;;;;5026679;28;20740;-77
2021/05/08 02:31:15;;;;;;;3.53;2.87;;;4.60;99.90;;;;;;5026592;28;20658;-77
2021/05/08 02:33:41;;;;;;;3.97;3.23;;;4.70;99.90;;;;;;5027213;28;20221;-77
2021/05/08 02:36:07;;;;;;;3.47;3.13;;;4.80;99.90;;;;;;5026987;28;20218;-77
2021/05/08 02:38:33;;;;;;;3.70;3.40;;;4.80;99.90;;;;;;5026416;27;20656;-75
2021/05/08 02:40:59;;;;;;;3.50;3.20;;;4.80;99.90;;;;;;5026236;28;20721;-75
2021/05/08 02:43:25;;;;;;;4.33;3.93;;;4.80;99.90;;;;;;5026441;28;20225;-73
2021/05/08 02:45:52;;;;;;;4.67;4.27;;;4.80;99.90;;;;;;5026463;28;20243;-73
2021/05/08 02:48:18;;;;;;;5.43;4.37;;;4.80;99.90;;;;;;5026163;28;20248;-73
2021/05/08 02:50:45;;;;;;;5.33;4.83;;;4.80;99.90;;;;;;5026083;28;20672;-76
2021/05/08 02:53:11;;;;;;;4.50;3.83;;;4.60;99.90;;;;;;5026389;28;20213;-77
2021/05/08 02:55:37;;;;;;;4.67;4.37;;;4.60;99.90;;;;;;5025151;28;20257;-78
2021/05/08 02:58:03;;;;;;;4.10;3.70;;;4.60;99.90;;;;;;5026190;28;20674;-78
2021/05/08 03:00:29;;;;;;;4.20;3.50;;;4.60;99.90;;;;;;5025950;27;20211;-78
2021/05/08 03:02:56;;;;;;;3.50;3.20;;;4.60;99.90;;;;;;5026253;28;20288;-78
2021/05/08 03:05:23;;;;;;;5.03;3.57;;;4.50;99.90;;;;;;5026402;28;20244;-78
2021/05/08 03:07:49;;;;;;;3.70;3.40;;;4.70;99.90;;;;;;5026100;28;20212;-78
2021/05/08 03:10:16;;;;;;;3.47;3.17;;;4.60;99.90;;;;;;5026709;28;20266;-77
2021/05/08 03:12:42;;;;;;;4.33;3.30;;;4.50;99.90;;;;;;5026229;28;20554;-78
2021/05/08 03:15:09;;;;;;;4.73;3.40;;;4.60;99.90;;;;;;5026126;28;20224;-78
2021/05/08 03:17:35;;;;;;;3.40;3.10;;;4.50;99.90;;;;;;5026212;28;20281;-78
2021/05/08 03:20:01;;;;;;;3.60;3.30;;;4.50;99.90;;;;;;5025838;28;20215;-78
2021/05/08 03:22:28;;;;;;;5.10;3.20;;;4.60;99.90;;;;;;5026017;27;20243;-78
2021/05/08 03:24:54;;;;;;;3.03;2.80;;;4.70;99.90;;;;;;5026147;28;20208;-77
2021/05/08 03:27:21;;;;;;;3.60;3.30;;;4.60;99.90;;;;;;5025868;28;20205;-77
2021/05/08 03:29:47;;;;;;;3.30;3.00;;;4.60;99.90;;;;;;5026051;28;20229;-77
2021/05/08 03:32:13;;;;;;;3.70;3.40;;;4.70;99.90;;;;;;5025776;28;20208;-77
2021/05/08 03:34:39;;;;;;;3.10;2.90;;;4.60;99.90;;;;;;5026181;28;20275;-77
2021/05/08 03:37:05;;;;;;;3.30;3.10;;;4.50;99.90;;;;;;5025355;28;20236;-77
2021/05/08 03:39:34;;;;;;;4.97;2.90;;;4.60;99.90;;;;;;5026052;28;20193;-78
2021/05/08 03:42:00;;;;;;;3.50;3.10;;;4.60;99.90;;;;;;5025408;28;20701;-78
2021/05/08 03:44:26;;;;;;;3.77;3.17;;;4.70;99.90;;;;;;5025707;28;20314;-78
2021/05/08 03:46:52;;;;;;;2.93;2.73;;;4.80;99.90;;;;;;5025695;28;20205;-78
2021/05/08 03:49:19;;;;;;;4.27;3.87;;;4.70;99.90;;;;;;5025081;28;20216;-78
2021/05/08 03:51:45;;;;;;;3.37;3.13;;;4.70;99.90;;;;;;5025660;28;20204;-76
2021/05/08 03:54:12;;;;;;;3.30;3.00;;;4.70;99.90;;;;;;5025455;28;20211;-75
2021/05/08 03:56:39;;;;;;;3.23;3.00;;;4.70;99.90;;;;;;5025394;28;20205;-75
2021/05/08 03:59:05;;;;;;;3.13;2.83;;;4.80;99.90;;;;;;5025292;28;20610;-75
2021/05/08 04:01:31;;;;;;;3.47;3.03;;;4.80;99.90;;;;;;5025454;28;20212;-75
2021/05/08 04:03:57;;;;;;;3.33;2.90;;;4.70;99.90;;;;;;5025495;28;20232;-75
2021/05/08 04:06:24;;;;;;;3.53;2.83;;;4.70;99.90;;;;;;5025367;28;20213;-75
2021/05/08 04:08:50;;;;;;;2.90;2.70;;;4.70;99.90;;;;;;5028864;28;20840;-75
2021/05/08 04:11:16;;;;;;;4.23;3.10;;;4.70;99.90;;;;;;5028348;28;20216;-74
2021/05/08 04:13:43;;;;;;;3.13;2.90;;;4.70;99.90;;;;;;5028641;28;20212;-75
2021/05/08 04:16:09;;;;;;;3.43;3.20;;;4.70;99.90;;;;;;5028641;28;20288;-73
2021/05/08 04:18:35;;;;;;;3.80;3.00;;;4.60;99.90;;;;;;5028227;28;20618;-73
2021/05/08 04:21:01;;;;;;;4.83;3.20;;;4.70;99.90;;;;;;5028663;28;20212;-73
2021/05/08 04:23:27;;;;;;;3.43;3.17;;;4.70;99.90;;;;;;5028133;28;20710;-71
2021/05/08 04:25:53;;;;;;;3.50;3.17;;;4.70;99.90;;;;;;5028480;28;20211;-71
2021/05/08 04:28:20;;;;;;;4.00;3.27;;;4.70;99.90;;;;;;5028357;28;20253;-72
2021/05/08 04:30:46;;;;;;;3.27;3.00;;;4.80;99.90;;;;;;5028435;28;20208;-71
2021/05/08 04:33:13;;;;;;;3.57;3.03;;;4.90;99.90;;;;;;5028142;28;20241;-72
2021/05/08 04:35:39;;;;;;;3.00;2.80;;;5.00;99.90;;;;;;5028317;28;20200;-72
2021/05/08 04:38:06;;;;;;;3.17;2.80;;;5.10;99.90;;;;;;5027979;28;20254;-72
2021/05/08 04:40:32;;;;;;;3.27;3.00;;;5.10;99.90;;;;;;5028146;28;20205;-72
2021/05/08 04:42:58;;;;;;;3.73;2.53;;;5.10;99.90;;;;;;5028221;28;20225;-72
2021/05/08 04:45:25;;;;;;;3.93;3.60;;;5.10;99.90;;;;;;5028207;28;20277;-74
2021/05/08 04:47:54;;;;;;;3.10;2.90;;;5.10;99.90;;;;;;5028447;28;20209;-75
2021/05/08 04:50:21;;;;;;;3.23;2.63;;;5.20;99.90;;;;;;5027848;28;20666;-76
2021/05/08 04:52:47;;;;;;;3.13;2.93;;;5.20;99.90;;;;;;5028447;28;20209;-76
2021/05/08 04:55:14;;;;;;;3.50;3.10;;;5.30;99.90;;;;;;5028096;28;20667;-76
2021/05/08 04:57:40;;;;;;;3.00;2.80;;;5.20;99.90;;;;;;5028194;28;20220;-76
2021/05/08 05:00:07;;;;;;;3.10;2.90;;;5.20;99.90;;;;;;5027938;28;20201;-76
2021/05/08 05:02:33;;;;;;;2.77;2.57;;;5.20;99.90;;;;;;5028524;28;20709;-77
2021/05/08 05:05:00;;;;;;;3.73;3.00;;;5.20;99.90;;;;;;5028496;28;20208;-76
2021/05/08 05:07:26;;;;;;;3.33;2.93;;;5.30;99.90;;;;;;5027752;28;20602;-76
2021/05/08 05:09:52;;;;;;;2.73;2.53;;;5.30;99.90;;;;;;5028254;28;20209;-76
2021/05/08 05:12:19;;;;;;;5.87;2.60;;;5.30;99.90;;;;;;5028146;28;20219;-75
2021/05/08 05:14:45;;;;;;;2.80;2.60;;;5.40;99.90;;;;;;5028173;28;20223;-76
2021/05/08 05:17:11;;;;;;;3.80;2.70;;;5.30;99.90;;;;;;5027991;28;20212;-76
2021/05/08 05:19:37;;;;;;;3.50;3.20;;;5.40;99.90;;;;;;5026929;28;20269;-76
2021/05/08 05:22:04;;;;;;;3.23;2.93;;;5.50;99.90;;;;;;5027735;28;20209;-75
2021/05/08 05:24:30;;;;;;;2.63;2.53;;;5.50;99.90;;;;;;5027844;28;20240;-76
2021/05/08 05:26:56;;;;;;;3.87;2.83;;;5.50;99.90;;;;;;5027443;28;20205;-75
2021/05/08 05:29:22;;;;;;;3.07;2.77;;;5.60;99.90;;;;;;5027510;28;20524;-74
2021/05/08 05:31:48;;;;;;;3.20;2.90;;;5.60;99.90;;;;;;5027731;28;20208;-75
2021/05/08 05:34:15;;;;;;;2.97;2.67;;;5.70;99.90;;;;;;5027460;28;20209;-74
2021/05/08 05:36:41;;;;;;;3.03;2.80;;;5.80;99.90;;;;;;5027338;28;20202;-74
2021/05/08 05:39:08;;;;;;;3.10;2.80;;;5.80;99.90;;;;;;5027649;28;20189;-75
2021/05/08 05:41:34;;;;;;;4.77;2.67;;;5.90;99.90;;;;;;5027580;28;20286;-75
2021/05/08 05:44:01;;;;;;;2.87;2.67;;;5.80;99.90;;;;;;5027500;28;20590;-76
2021/05/08 05:46:27;;;;;;;2.97;2.63;;;5.90;99.90;;;;;;5027233;28;20558;-76
2021/05/08 05:48:53;;;;;;;6.27;2.47;;;6.00;99.90;;;;;;5027533;28;20221;-76
2021/05/08 05:51:19;;;;;;;4.57;2.60;;;6.10;99.90;;;;;;5027474;28;20213;-77
2021/05/08 05:53:46;;;;;;;2.67;2.47;;;6.10;99.90;;;;;;5027509;28;20208;-76
2021/05/08 05:56:13;;;;;;;3.23;2.40;;;6.00;99.90;;;;;;5027289;28;20220;-77
2021/05/08 05:58:39;;;;;;;5.07;2.70;;;6.10;99.90;;;;;;5027423;28;20498;-77
2021/05/08 06:01:05;;;;;;;3.23;2.50;;;6.10;99.90;;;;;;5027384;28;20254;-74
2021/05/08 06:03:31;;;;;;;3.93;2.37;;;6.30;99.90;;;;;;5026955;28;20305;-75
2021/05/08 06:05:57;;;;;;;2.53;2.33;;;6.40;99.90;;;;;;5027191;28;20212;-74
2021/05/08 06:08:23;;;;;;;3.00;2.80;;;6.50;99.90;;;;;;5026723;28;20735;-75
2021/05/08 06:10:49;;;;;;;3.07;2.87;;;6.50;99.90;;;;;;5026855;28;20581;-75
2021/05/08 06:13:16;;;;;;;2.70;2.50;;;6.60;99.90;;;;;;5027015;28;20285;-75
2021/05/08 06:15:42;;;;;;;2.53;2.30;;;6.60;99.90;;;;;;5027025;28;20257;-75
2021/05/08 06:18:09;;;;;;;2.87;2.23;;;6.70;99.90;;;;;;5028454;28;20217;-76
2021/05/08 06:20:35;;;;;;;3.17;2.17;;;6.80;99.90;;;;;;5038016;28;20200;-75
2021/05/08 06:23:02;;;;;;;2.43;2.20;;;6.90;99.90;;;;;;5038001;28;20227;-75
2021/05/08 06:25:28;;;;;;;4.83;2.33;;;6.90;99.90;;;;;;5036652;27;20560;-75
2021/05/08 06:27:54;;;;;;;3.20;2.90;;;7.00;99.90;;;;;;5036942;28;20205;-73
2021/05/08 06:30:22;;;;;;;4.43;2.20;;;7.00;99.90;;;;;;5034779;28;20261;-74
2021/05/08 06:32:48;;;;;;;4.37;2.40;;;7.10;99.90;;;;;;5034436;28;20686;-74
2021/05/08 06:35:14;;;;;;;4.37;2.20;;;7.10;99.90;;;;;;5036575;28;20209;-74
2021/05/08 06:37:40;;;;;;;2.43;2.23;;;7.20;99.90;;;;;;5034738;28;20245;-74
2021/05/08 06:40:08;;;;;;;4.50;2.17;;;7.20;99.90;;;;;;5037022;28;20634;-76
2021/05/08 06:42:34;;;;;;;2.83;2.50;;;7.20;99.90;;;;;;5039040;28;20224;-76
2021/05/08 06:45:00;;;;;;;2.90;2.40;;;7.30;99.90;;;;;;5028790;28;20216;-76
2021/05/08 06:47:27;;;;;;;3.70;2.70;;;7.30;99.90;;;;;;5024358;28;20220;-76
2021/05/08 06:49:53;;;;;;;2.53;2.33;;;7.30;99.90;;;;;;5035605;28;20200;-76
2021/05/08 06:52:19;;;;;;;2.53;2.30;;;7.40;99.90;;;;;;5038646;28;20200;-76
2021/05/08 06:54:48;;;;;;;2.80;2.50;;;7.40;99.90;;;;;;5038647;28;20741;-76
2021/05/08 06:57:14;;;;;;;4.00;2.40;;;7.50;99.90;;;;;;5023913;28;20209;-75
2021/05/08 06:59:40;;;;;;;3.77;2.43;;;7.50;99.90;;;;;;5024515;28;20213;-74
2021/05/08 07:02:07;;;;;;;4.83;2.50;;;7.80;99.90;;;;;;5024168;28;20682;-76
2021/05/08 07:04:34;;;;;;;3.53;2.37;;;7.80;99.90;;;;;;5042115;28;20208;-76
2021/05/08 07:07:00;;;;;;;7.10;2.90;;;7.70;99.90;;;;;;5043789;28;20212;-76
2021/05/08 07:09:27;;;;;;;4.13;2.07;;;7.70;99.90;;;;;;5031113;28;20205;-75
2021/05/08 07:11:53;;;;;;;4.50;2.73;;;7.70;99.90;;;;;;5024110;28;20205;-75
2021/05/08 07:14:19;;;;;;;3.93;2.67;;;7.70;99.90;;;;;;5023734;28;20216;-75
2021/05/08 07:16:46;;;;;;;3.10;2.40;;;7.70;99.90;;;;;;5023981;28;20213;-75
2021/05/08 07:19:12;;;;;;;3.43;2.07;;;7.70;99.90;;;;;;5023498;28;20614;-76
2021/05/08 07:21:39;;;;;;;3.20;2.27;;;7.70;99.90;;;;;;5024016;28;20212;-75
2021/05/08 07:24:06;;;;;;;2.37;1.90;;;7.70;99.90;;;;;;5023537;28;20236;-75
2021/05/08 07:26:32;;;;;;;3.87;2.10;;;7.70;99.90;;;;;;5024180;27;20215;-76
2021/05/08 07:28:59;;;;;;;2.43;2.23;;;7.80;99.90;;;;;;5023894;28;20236;-76
2021/05/08 07:31:26;;;;;;;9.60;2.33;;;7.90;99.90;;;;;;5023814;28;20205;-76
2021/05/08 07:33:52;;;;;;;4.17;2.20;;;8.00;99.90;;;;;;5024172;28;20220;-76
2021/05/08 07:36:19;;;;;;;3.07;2.50;;;8.10;99.90;;;;;;5023924;28;20571;-76
2021/05/08 07:38:46;;;;;;;4.60;2.17;;;8.20;99.90;;;;;;5025693;28;20274;-77
2021/05/08 07:41:13;;;;;;;2.63;2.10;;;8.30;99.90;;;;;;5031498;28;20200;-76
2021/05/08 07:43:39;;;;;;;4.33;2.20;;;8.30;99.90;;;;;;5032553;27;20660;-76
2021/05/08 07:46:06;;;;;;;4.47;2.13;;;8.20;99.90;;;;;;5033288;28;20654;-76
2021/05/08 07:48:32;;;;;;;2.13;1.93;;;8.30;99.90;;;;;;5038218;27;20204;-74
2021/05/08 07:50:59;;;;;;;6.17;2.33;;;8.30;99.90;;;;;;5039669;27;20232;-75
2021/05/08 07:53:25;;;;;;;6.53;2.23;;;8.40;99.90;;;;;;5039642;28;20677;-77
2021/05/08 07:55:52;;;;;;;3.03;1.70;;;8.60;99.90;;;;;;5045285;28;20209;-77
2021/05/08 07:58:18;;;;;;;5.37;2.47;;;8.60;99.90;;;;;;5045172;28;20297;-77
2021/05/08 08:00:44;;;;;;;6.00;2.13;;;8.70;99.90;;;;;;5045197;28;20204;-77
2021/05/08 08:03:10;;;;;;;7.17;2.03;;;8.70;99.90;;;;;;5045389;27;20232;-77
2021/05/08 08:05:37;;;;;;;2.87;1.80;;;8.80;99.90;;;;;;5045093;28;20208;-77
2021/05/08 08:08:03;;;;;;;2.47;2.10;;;8.80;99.90;;;;;;5045235;27;20662;-77
2021/05/08 08:10:29;;;;;;;3.27;1.83;;;8.80;99.90;;;;;;5037531;27;20209;-77
2021/05/08 08:12:56;;;;;;;1.80;1.63;;;8.90;99.90;;;;;;5045004;28;20204;-77
2021/05/08 08:15:23;;;;;;;3.87;2.17;;;9.10;99.90;;;;;;5045106;28;20204;-77
2021/05/08 08:17:49;;;;;;;6.30;2.10;;;9.10;99.90;;;;;;5045177;28;20211;-77
2021/05/08 08:20:16;;;;;;;2.73;2.43;;;9.20;99.90;;;;;;5044950;28;20200;-77
2021/05/08 08:22:44;;;;;;;2.90;1.80;;;9.30;99.90;;;;;;5044359;28;20239;-77
2021/05/08 08:25:11;;;;;;;4.43;2.40;;;9.30;99.90;;;;;;5041880;27;20342;-78
2021/05/08 08:27:38;;;;;;;5.30;2.13;;;9.40;99.90;;;;;;5044921;28;20204;-76
2021/05/08 08:30:08;;;;;;;3.67;2.50;;;9.40;99.90;;;;;;5045005;28;20236;-77
2021/05/08 08:32:34;;;;;;;5.70;2.70;;;9.50;99.90;;;;;;5044698;28;20721;-77
2021/05/08 08:35:00;;;;;;;4.10;2.70;;;9.60;99.90;;;;;;5044467;28;20208;-77
2021/05/08 08:37:26;;;;;;;3.87;2.87;;;9.70;99.90;;;;;;5044635;28;20292;-76
2021/05/08 08:39:53;;;;;;;2.90;2.70;;;9.60;99.90;;;;;;5044752;28;20204;-77
2021/05/08 08:42:20;;;;;;;2.57;2.37;;;9.70;99.90;;;;;;5044540;28;20212;-77
2021/05/08 08:44:46;;;;;;;3.63;2.67;;;10.00;99.90;;;;;;5044881;28;20200;-77
2021/05/08 08:47:28;;;;;;;3.83;2.50;;;10.10;99.90;;;;;;5045012;28;20219;-77
2021/05/08 08:49:58;;;;;;;2.93;2.60;;;10.00;99.90;;;;;;5044486;28;20211;-78
2021/05/08 08:52:25;;;;;;;2.87;2.47;;;10.00;99.90;;;;;;5045340;28;20244;-78
2021/05/08 08:54:52;;;;;;;4.10;2.20;;;10.00;99.90;;;;;;5048035;28;20678;-77
2021/05/08 08:57:24;;;;;;;2.40;2.10;;;10.10;99.90;;;;;;5047609;28;20711;-77
2021/05/08 08:59:52;;;;;;;2.23;2.03;;;10.30;99.90;;;;;;5047941;28;20685;-77
2021/05/08 09:02:20;;;;;;;2.70;2.47;;;10.10;99.90;;;;;;5047769;28;20208;-77
2021/05/08 09:04:46;;;;;;;2.20;2.00;;;10.00;99.90;;;;;;5047949;28;20213;-77
2021/05/08 09:07:15;;;;;;;4.30;2.57;;;10.10;99.90;;;;;;5044775;28;20205;-77
2021/05/08 09:09:42;;;;;;;2.30;2.10;;;10.20;99.90;;;;;;5047596;28;20273;-77
2021/05/08 09:12:13;;;;;;;6.53;4.63;;;10.40;99.90;;;;;;5047463;28;20260;-77
2021/05/08 09:14:39;;;;;;;6.80;4.40;;;10.60;99.90;;;;;;5047864;28;20287;-77
2021/05/08 09:17:14;;;;;;;3.67;3.23;;;10.80;99.90;;;;;;5047580;28;20553;-77
2021/05/08 09:19:42;;;;;;;3.83;3.43;;;10.70;99.90;;;;;;5047674;27;20192;-77
2021/05/08 09:22:29;;;;;;;2.03;1.93;;;10.70;99.90;;;;;;5047397;28;20647;-77
2021/05/08 09:24:59;;;;;;;2.23;2.03;;;10.80;99.90;;;;;;5047983;28;20253;-77
2021/05/08 09:27:36;;;;;;;3.50;2.10;;;10.70;99.90;;;;;;5047454;28;20200;-77
2021/05/08 09:30:08;;;;;;;4.83;1.93;;;10.70;99.90;;;;;;5047480;28;20255;-77
2021/05/08 09:32:38;;;;;;;1.70;1.60;;;10.80;99.90;;;;;;5047452;28;20268;-77
2021/05/08 09:35:09;;;;;;;1.80;1.70;;;10.90;99.90;;;;;;5047401;28;20216;-77
2021/05/08 09:37:36;;;;;;;3.20;1.77;;;10.90;99.90;;;;;;5046922;28;20236;-78
2021/05/08 09:40:17;;;;;;;1.70;1.47;;;11.00;99.90;;;;;;5047363;28;20204;-77
2021/05/08 09:42:45;;;;;;;1.60;1.50;;;11.00;99.90;;;;;;5047065;28;20735;-77
2021/05/08 09:45:13;;;;;;;4.40;2.40;;;11.10;99.90;;;;;;5047451;28;20208;-75
2021/05/08 09:47:39;;;;;;;3.37;2.20;;;11.00;99.90;;;;;;5047544;28;20204;-75
2021/05/08 09:50:07;;;;;;;2.67;2.07;;;10.90;99.90;;;;;;5046966;28;20666;-75
2021/05/08 09:52:50;;;;;;;2.90;2.60;;;10.90;99.90;;;;;;5042614;28;20272;-75
2021/05/08 09:55:18;;;;;;;4.97;2.40;;;11.10;99.90;;;;;;5027389;28;20200;-75
2021/05/08 09:58:02;;;;;;;2.60;2.40;;;11.20;99.90;;;;;;5027309;28;20221;-78
2021/05/08 10:00:35;;;;;;;2.10;2.00;;;11.30;99.90;;;;;;5027390;28;20196;-77
2021/05/08 10:03:09;;;;;;;2.30;2.20;;;11.30;99.90;;;;;;5026734;28;20554;-77
2021/05/08 10:05:36;;;;;;;2.50;2.27;;;11.30;99.90;;;;;;5026755;28;20284;-77
2021/05/08 10:08:04;;;;;;;3.23;2.50;;;11.30;99.90;;;;;;5026718;28;20205;-77
2021/05/08 10:10:30;;;;;;;3.30;3.10;;;11.20;99.90;;;;;;5026467;28;20667;-77
2021/05/08 10:12:57;;;;;;;3.90;3.03;;;11.30;99.90;;;;;;5027005;28;20674;-77
2021/05/08 10:15:23;;;;;;;2.93;2.67;;;11.10;99.90;;;;;;5027222;28;20209;-77
2021/05/08 10:17:51;;;;;;;3.00;2.80;;;11.20;99.90;;;;;;5026658;28;20209;-77
2021/05/08 10:20:19;;;;;;;2.53;2.43;;;11.30;99.90;;;;;;5026968;28;20211;-77
2021/05/08 10:22:53;;;;;;;3.40;2.60;;;11.20;99.90;;;;;;5026890;28;20220;-77
2021/05/08 10:25:22;;;;;;;2.93;2.70;;;11.20;99.90;;;;;;5026909;28;20203;-77
2021/05/08 10:27:49;;;;;;;2.67;2.50;;;11.30;99.90;;;;;;5029579;28;20205;-77
2021/05/08 10:30:17;;;;;;;2.63;2.43;;;11.50;99.90;;;;;;5033472;28;20235;-77
2021/05/08 10:32:49;;;;;;;3.73;2.53;;;11.70;99.90;;;;;;5027126;28;20209;-76
2021/05/08 10:35:26;;;;;;;2.67;2.47;;;12.00;99.90;;;;;;5024433;28;20209;-77
2021/05/08 10:38:16;;;;;;;4.63;3.30;;;12.20;99.90;;;;;;5023991;27;20267;-77
2021/05/08 10:41:05;;;;;;;2.57;2.37;;;12.10;99.20;;;;;;5024709;28;20242;-76
2021/05/08 10:43:49;;;;;;;2.80;2.60;;;12.30;99.80;;;;;;5025681;28;20292;-76
2021/05/08 10:46:16;;;;;;;2.20;2.00;;;12.40;98.70;;;;;;5024845;28;20209;-77
2021/05/08 10:49:18;;;;;;;2.80;2.60;;;12.60;99.10;;;;;;5024821;28;20205;-76
2021/05/08 10:51:58;;;;;;;3.30;2.57;;;12.50;98.00;;;;;;5024267;28;20706;-76
2021/05/08 10:54:55;;;;;;;2.93;2.73;;;12.50;98.90;;;;;;5024245;28;20308;-76
2021/05/08 10:57:23;;;;;;;2.53;2.40;;;12.70;98.40;;;;;;5024106;28;20205;-76
2021/05/08 11:00:24;;;;;;;2.87;2.67;;;12.90;98.80;;;;;;5024476;28;20231;-76
2021/05/08 11:03:03;;;;;;;3.03;2.70;;;12.90;98.50;;;;;;5043430;28;20228;-75
2021/05/08 11:05:32;;;;;;;3.10;2.80;;;12.80;98.10;;;;;;5025603;27;20224;-74
2021/05/08 11:07:59;;;;;;;2.80;2.60;;;12.70;97.00;;;;;;5028106;28;20262;-76
2021/05/08 11:10:40;;;;;;;2.87;2.67;;;12.50;97.30;;;;;;5043932;28;20208;-77
2021/05/08 11:13:08;;;;;;;2.40;2.30;;;12.50;96.60;;;;;;5043937;28;20226;-76
2021/05/08 11:16:08;;;;;;;2.80;2.40;;;12.60;97.50;;;;;;5043502;28;20204;-77
2021/05/08 11:18:38;;;;;;;2.60;2.40;;;12.90;97.60;;;;;;5043260;28;20300;-76
2021/05/08 11:21:37;;;;;;;2.63;2.40;;;13.20;97.00;;;;;;5042797;28;20205;-76
2021/05/08 11:24:05;;;;;;;3.20;2.50;;;13.40;97.90;;;;;;5043336;28;20228;-76
2021/05/08 11:26:34;;;;;;;4.20;3.10;;;13.50;95.80;;;;;;5043428;28;20212;-76
2021/05/08 11:29:02;;;;;;;3.00;2.30;;;13.50;96.30;;;;;;5039853;28;20798;-75
2021/05/08 11:31:29;;;;;;;3.17;2.40;;;13.90;97.30;;;;;;5043800;28;20247;-77
2021/05/08 11:34:10;;;;;;;2.43;2.30;;;14.20;97.30;;;;;;5041896;27;20223;-77
2021/05/08 11:36:47;;;;;;;2.40;2.30;;;14.50;98.00;;;;;;5045177;28;20207;-77
2021/05/08 11:39:15;;;;;;;2.27;2.17;;;14.90;97.70;;;;;;5045826;27;20203;-77
2021/05/08 11:41:43;;;;;;;2.87;2.40;;;14.80;93.60;;;;;;5043050;27;20632;-77
2021/05/08 11:44:18;;;;;;;2.63;2.43;;;14.70;93.70;;;;;;5045353;28;20239;-77
2021/05/08 11:46:52;;;;;;;3.33;2.27;;;14.50;94.20;;;;;;5045603;27;20203;-78
2021/05/08 11:49:27;;;;;;;2.93;2.20;;;14.40;92.60;;;;;;5045617;28;20278;-77
2021/05/08 11:51:53;;;;;;;2.30;2.10;;;14.50;93.00;;;;;;5045681;27;20196;-77
2021/05/08 11:54:22;;;;;;;2.37;2.27;;;14.50;92.40;;;;;;5045144;28;20212;-78
2021/05/08 11:56:49;;;;;;;2.43;2.23;;;14.60;92.50;;;;;;5045101;28;20212;-75
2021/05/08 11:59:15;;;;;;;3.07;2.37;;;14.90;93.20;;;;;;5044232;28;20297;-75
2021/05/08 12:01:41;;;;;;;4.67;2.60;;;15.00;92.60;;;;;;5044774;28;20212;-75
2021/05/08 12:04:08;;;;;;;2.50;2.30;;;15.00;91.80;;;;;;5044901;28;20254;-75
2021/05/08 12:06:35;;;;;;;3.40;2.20;;;15.10;91.30;;;;;;5044444;27;20238;-75
2021/05/08 12:09:10;;;;;;;3.50;2.60;;;15.00;91.70;;;;;;5044972;28;20204;-75
2021/05/08 12:11:36;;;;;;;2.73;2.50;;;15.10;91.00;;;;;;5044718;27;20813;-77
2021/05/08 12:14:14;;;;;;;7.80;7.00;;;15.20;91.80;;;;;;5044796;28;20299;-75
2021/05/08 12:16:41;;;;;;;4.23;2.70;;;14.90;90.40;;;;;;5044652;27;20215;-76
2021/05/08 12:19:07;;;;;;;2.53;2.33;;;14.70;92.00;;;;;;5045034;27;20208;-76
2021/05/08 12:21:36;;;;;;;2.40;2.20;;;14.70;91.60;;;;;;5045280;27;20227;-77
2021/05/08 12:24:04;;;;;;;2.40;2.10;;;14.60;91.10;;;;;;5044841;27;20628;-76
2021/05/08 12:26:30;;;;;;;2.70;2.50;;;14.80;91.00;;;;;;5044847;28;20216;-76
2021/05/08 12:28:57;;;;;;;2.53;2.40;;;15.00;90.40;;;;;;5047048;27;20845;-76
2021/05/08 12:31:29;;;;;;;2.13;2.03;;;15.20;90.50;;;;;;5048772;27;20208;-77
2021/05/08 12:33:57;;;;;;;2.33;2.13;;;15.30;90.20;;;;;;5048378;27;20208;-77
2021/05/08 12:36:25;;;;;;;2.67;2.43;;;15.40;89.00;;;;;;5048693;27;20204;-76
2021/05/08 12:38:53;;;;;;;2.00;1.90;;;15.60;88.50;;;;;;5048261;27;20701;-78
2021/05/08 12:41:31;;;;;;;2.27;2.10;;;15.50;87.50;;;;;;5048430;28;20215;-77
2021/05/08 12:44:05;;;;;;;2.03;1.93;;;15.30;86.40;;;;;;5047863;28;20594;-77
2021/05/08 12:46:59;;;;;;;2.70;2.10;;;15.50;87.90;;;;;;5045395;28;20200;-76
2021/05/08 12:49:25;;;;;;;2.00;1.80;;;15.40;86.90;;;;;;5038394;28;20209;-76
2021/05/08 12:51:52;;;;;;;2.10;1.90;;;15.70;87.80;;;;;;5048059;28;20662;-77
2021/05/08 12:54:20;;;;;;;2.70;2.30;;;15.60;86.30;;;;;;5047862;28;20686;-76
2021/05/08 12:56:47;;;;;;;2.43;2.23;;;15.60;88.30;;;;;;5048193;28;20207;-77
2021/05/08 12:59:23;;;;;;;2.10;2.00;;;15.90;86.60;;;;;;5048516;27;20228;-76